sensor_id;sensor_type;location;lat;lon;timestamp;temperature;humidity
35325;DHT22;35135;47.510;19.036;2022-10-22T00:01:11;20.50;53.20
35325;DHT22;35135;47.510;19.036;2022-10-22T00:03:36;20.50;53.10
35325;DHT22;35135;47.510;19.036;2022-10-22T00:06:02;20.50;53.10
35325;DHT22;35135;47.510;19.036;2022-10-22T00:08:28;20.50;53.10
35325;DHT22;35135;47.510;19.036;2022-10-22T00:10:54;20.50;53.00
35325;DHT22;35135;47.510;19.036;2022-10-22T00:13:19;20.50;53.00
35325;DHT22;35135;47.510;19.036;2022-10-22T00:15:45;20.50;53.10
35325;DHT22;35135;47.510;19.036;2022-10-22T00:18:11;20.50;53.60
35325;DHT22;35135;47.510;19.036;2022-10-22T00:20:36;20.50;53.10
35325;DHT22;35135;47.510;19.036;2022-10-22T00:23:02;20.50;53.10
35325;DHT22;35135;47.510;19.036;2022-10-22T00:25:28;20.50;53.10
35325;DHT22;35135;47.510;19.036;2022-10-22T00:27:53;20.50;53.10
35325;DHT22;35135;47.510;19.036;2022-10-22T00:30:19;20.50;53.10
35325;DHT22;35135;47.510;19.036;2022-10-22T00:32:44;20.50;53.10
35325;DHT22;35135;47.510;19.036;2022-10-22T00:35:10;20.50;53.10
35325;DHT22;35135;47.510;19.036;2022-10-22T00:37:36;20.50;53.20
35325;DHT22;35135;47.510;19.036;2022-10-22T00:40:02;20.50;53.10
35325;DHT22;35135;47.510;19.036;2022-10-22T00:42:28;20.50;53.20
35325;DHT22;35135;47.510;19.036;2022-10-22T00:47:41;20.50;53.20
35325;DHT22;35135;47.510;19.036;2022-10-22T00:50:13;20.50;53.10
35325;DHT22;35135;47.510;19.036;2022-10-22T00:52:40;20.50;53.10
35325;DHT22;35135;47.510;19.036;2022-10-22T00:55:06;20.50;53.20
35325;DHT22;35135;47.510;19.036;2022-10-22T00:57:33;20.50;53.20
35325;DHT22;35135;47.510;19.036;2022-10-22T00:59:59;20.50;53.10
35325;DHT22;35135;47.510;19.036;2022-10-22T01:02:25;20.50;53.10
35325;DHT22;35135;47.510;19.036;2022-10-22T01:04:51;20.50;53.10
35325;DHT22;35135;47.510;19.036;2022-10-22T01:07:19;20.50;53.10
35325;DHT22;35135;47.510;19.036;2022-10-22T01:10:11;20.50;53.10
35325;DHT22;35135;47.510;19.036;2022-10-22T01:16:05;20.50;53.10
35325;DHT22;35135;47.510;19.036;2022-10-22T01:18:36;20.50;53.10
35325;DHT22;35135;47.510;19.036;2022-10-22T01:21:32;20.50;53.10
35325;DHT22;35135;47.510;19.036;2022-10-22T01:29:40;20.50;53.10
35325;DHT22;35135;47.510;19.036;2022-10-22T01:32:13;20.50;53.10
35325;DHT22;35135;47.510;19.036;2022-10-22T01:34:42;20.50;53.10
35325;DHT22;35135;47.510;19.036;2022-10-22T01:37:09;20.50;53.10
35325;DHT22;35135;47.510;19.036;2022-10-22T01:39:38;20.50;53.10
35325;DHT22;35135;47.510;19.036;2022-10-22T01:42:04;20.50;53.10
35325;DHT22;35135;47.510;19.036;2022-10-22T01:44:34;20.50;53.00
35325;DHT22;35135;47.510;19.036;2022-10-22T01:47:03;20.50;53.10
35325;DHT22;35135;47.510;19.036;2022-10-22T01:57:48;20.40;53.10
35325;DHT22;35135;47.510;19.036;2022-10-22T02:00:17;20.40;53.00
35325;DHT22;35135;47.510;19.036;2022-10-22T02:03:03;20.50;52.90
35325;DHT22;35135;47.510;19.036;2022-10-22T02:05:46;20.40;53.00
35325;DHT22;35135;47.510;19.036;2022-10-22T02:08:33;20.40;53.00
35325;DHT22;35135;47.510;19.036;2022-10-22T02:11:00;20.50;53.10
35325;DHT22;35135;47.510;19.036;2022-10-22T02:15:55;20.40;52.90
35325;DHT22;35135;47.510;19.036;2022-10-22T02:18:24;20.40;53.00
35325;DHT22;35135;47.510;19.036;2022-10-22T02:20:53;20.40;52.90
35325;DHT22;35135;47.510;19.036;2022-10-22T02:23:20;20.40;53.00
35325;DHT22;35135;47.510;19.036;2022-10-22T02:25:50;20.40;53.00
35325;DHT22;35135;47.510;19.036;2022-10-22T02:28:38;20.40;53.00
35325;DHT22;35135;47.510;19.036;2022-10-22T02:31:18;20.40;53.10
35325;DHT22;35135;47.510;19.036;2022-10-22T02:33:48;20.40;52.90
35325;DHT22;35135;47.510;19.036;2022-10-22T02:36:16;20.40;53.00
35325;DHT22;35135;47.510;19.036;2022-10-22T02:38:42;20.40;52.90
35325;DHT22;35135;47.510;19.036;2022-10-22T02:41:08;20.40;53.00
35325;DHT22;35135;47.510;19.036;2022-10-22T02:43:40;20.40;53.00
35325;DHT22;35135;47.510;19.036;2022-10-22T02:46:07;20.40;53.10
35325;DHT22;35135;47.510;19.036;2022-10-22T02:48:33;20.40;53.00
35325;DHT22;35135;47.510;19.036;2022-10-22T02:50:58;20.40;53.70
35325;DHT22;35135;47.510;19.036;2022-10-22T02:53:24;20.40;53.20
35325;DHT22;35135;47.510;19.036;2022-10-22T02:55:50;20.40;53.10
35325;DHT22;35135;47.510;19.036;2022-10-22T02:58:15;20.40;53.20
35325;DHT22;35135;47.510;19.036;2022-10-22T03:00:41;20.40;53.20
35325;DHT22;35135;47.510;19.036;2022-10-22T03:03:07;20.40;53.20
35325;DHT22;35135;47.510;19.036;2022-10-22T03:05:32;20.40;53.10
35325;DHT22;35135;47.510;19.036;2022-10-22T03:07:58;20.40;53.10
35325;DHT22;35135;47.510;19.036;2022-10-22T03:10:24;20.40;53.20
35325;DHT22;35135;47.510;19.036;2022-10-22T03:12:49;20.40;53.20
35325;DHT22;35135;47.510;19.036;2022-10-22T03:15:15;20.40;53.20
35325;DHT22;35135;47.510;19.036;2022-10-22T03:17:40;20.40;53.10
35325;DHT22;35135;47.510;19.036;2022-10-22T03:20:06;20.40;53.20
35325;DHT22;35135;47.510;19.036;2022-10-22T03:22:33;20.40;53.20
35325;DHT22;35135;47.510;19.036;2022-10-22T03:25:03;20.40;53.20
35325;DHT22;35135;47.510;19.036;2022-10-22T03:27:32;20.40;53.30
35325;DHT22;35135;47.510;19.036;2022-10-22T03:29:58;20.40;53.20
35325;DHT22;35135;47.510;19.036;2022-10-22T03:32:24;20.40;53.20
35325;DHT22;35135;47.510;19.036;2022-10-22T03:34:50;20.40;53.20
35325;DHT22;35135;47.510;19.036;2022-10-22T03:37:15;20.40;53.20
35325;DHT22;35135;47.510;19.036;2022-10-22T03:39:41;20.40;53.20
35325;DHT22;35135;47.510;19.036;2022-10-22T03:42:08;20.40;53.20
35325;DHT22;35135;47.510;19.036;2022-10-22T03:44:36;20.40;53.20
35325;DHT22;35135;47.510;19.036;2022-10-22T03:47:02;20.40;53.20
35325;DHT22;35135;47.510;19.036;2022-10-22T03:49:28;20.40;53.10
35325;DHT22;35135;47.510;19.036;2022-10-22T03:51:53;20.40;53.10
35325;DHT22;35135;47.510;19.036;2022-10-22T03:54:19;20.40;53.10
35325;DHT22;35135;47.510;19.036;2022-10-22T03:56:45;20.40;53.20
35325;DHT22;35135;47.510;19.036;2022-10-22T03:59:10;20.40;53.20
35325;DHT22;35135;47.510;19.036;2022-10-22T04:01:37;20.40;53.20
35325;DHT22;35135;47.510;19.036;2022-10-22T04:04:03;20.40;53.20
35325;DHT22;35135;47.510;19.036;2022-10-22T04:06:29;20.40;53.10
35325;DHT22;35135;47.510;19.036;2022-10-22T04:08:55;20.40;53.20
35325;DHT22;35135;47.510;19.036;2022-10-22T04:11:20;20.40;53.20
35325;DHT22;35135;47.510;19.036;2022-10-22T04:13:46;20.40;53.20
35325;DHT22;35135;47.510;19.036;2022-10-22T04:16:17;20.40;53.20
35325;DHT22;35135;47.510;19.036;2022-10-22T04:18:45;20.40;53.20
35325;DHT22;35135;47.510;19.036;2022-10-22T04:21:12;20.40;53.20
35325;DHT22;35135;47.510;19.036;2022-10-22T04:23:42;20.40;53.10
35325;DHT22;35135;47.510;19.036;2022-10-22T04:26:08;20.40;53.10
35325;DHT22;35135;47.510;19.036;2022-10-22T04:28:34;20.40;53.20
35325;DHT22;35135;47.510;19.036;2022-10-22T04:31:00;20.40;53.20
35325;DHT22;35135;47.510;19.036;2022-10-22T04:33:31;20.40;53.10
35325;DHT22;35135;47.510;19.036;2022-10-22T04:35:56;20.40;53.20
35325;DHT22;35135;47.510;19.036;2022-10-22T04:38:22;20.30;53.20
35325;DHT22;35135;47.510;19.036;2022-10-22T04:40:48;20.40;53.20
35325;DHT22;35135;47.510;19.036;2022-10-22T04:43:13;20.40;53.00
35325;DHT22;35135;47.510;19.036;2022-10-22T04:45:39;20.40;53.10
35325;DHT22;35135;47.510;19.036;2022-10-22T04:48:05;20.40;53.10
35325;DHT22;35135;47.510;19.036;2022-10-22T04:50:30;20.30;53.10
35325;DHT22;35135;47.510;19.036;2022-10-22T04:52:56;20.40;53.20
35325;DHT22;35135;47.510;19.036;2022-10-22T04:55:22;20.40;53.10
35325;DHT22;35135;47.510;19.036;2022-10-22T04:57:47;20.30;53.10
35325;DHT22;35135;47.510;19.036;2022-10-22T05:00:13;20.30;53.20
35325;DHT22;35135;47.510;19.036;2022-10-22T05:02:41;20.30;53.10
35325;DHT22;35135;47.510;19.036;2022-10-22T05:05:09;20.30;53.00
35325;DHT22;35135;47.510;19.036;2022-10-22T05:07:36;20.30;53.20
35325;DHT22;35135;47.510;19.036;2022-10-22T05:10:01;20.30;53.20
35325;DHT22;35135;47.510;19.036;2022-10-22T05:12:27;20.30;53.20
35325;DHT22;35135;47.510;19.036;2022-10-22T05:14:53;20.30;53.20
35325;DHT22;35135;47.510;19.036;2022-10-22T05:17:20;20.30;53.20
35325;DHT22;35135;47.510;19.036;2022-10-22T05:19:45;20.40;53.30
35325;DHT22;35135;47.510;19.036;2022-10-22T05:22:11;20.40;53.30
35325;DHT22;35135;47.510;19.036;2022-10-22T05:24:37;20.40;53.20
35325;DHT22;35135;47.510;19.036;2022-10-22T05:27:02;20.30;53.20
35325;DHT22;35135;47.510;19.036;2022-10-22T05:29:28;20.40;53.20
35325;DHT22;35135;47.510;19.036;2022-10-22T05:31:54;20.40;53.20
35325;DHT22;35135;47.510;19.036;2022-10-22T05:34:19;20.30;53.10
35325;DHT22;35135;47.510;19.036;2022-10-22T05:36:45;20.40;53.10
35325;DHT22;35135;47.510;19.036;2022-10-22T05:39:12;20.40;53.20
35325;DHT22;35135;47.510;19.036;2022-10-22T05:41:37;20.40;53.20
35325;DHT22;35135;47.510;19.036;2022-10-22T05:44:04;20.40;53.10
35325;DHT22;35135;47.510;19.036;2022-10-22T05:46:33;20.40;53.20
35325;DHT22;35135;47.510;19.036;2022-10-22T05:49:01;20.40;53.00
35325;DHT22;35135;47.510;19.036;2022-10-22T05:51:29;20.40;53.10
35325;DHT22;35135;47.510;19.036;2022-10-22T05:53:57;20.40;53.10
35325;DHT22;35135;47.510;19.036;2022-10-22T05:56:24;20.40;53.10
35325;DHT22;35135;47.510;19.036;2022-10-22T05:58:50;20.40;53.10
35325;DHT22;35135;47.510;19.036;2022-10-22T06:01:24;20.40;53.20
35325;DHT22;35135;47.510;19.036;2022-10-22T06:03:53;20.40;53.10
35325;DHT22;35135;47.510;19.036;2022-10-22T06:06:29;20.40;53.20
35325;DHT22;35135;47.510;19.036;2022-10-22T06:09:00;20.40;53.30
35325;DHT22;35135;47.510;19.036;2022-10-22T06:11:26;20.40;53.30
35325;DHT22;35135;47.510;19.036;2022-10-22T06:13:52;20.40;53.30
35325;DHT22;35135;47.510;19.036;2022-10-22T06:16:18;20.40;53.30
35325;DHT22;35135;47.510;19.036;2022-10-22T06:18:44;20.40;53.30
35325;DHT22;35135;47.510;19.036;2022-10-22T06:21:12;20.40;53.30
35325;DHT22;35135;47.510;19.036;2022-10-22T06:23:39;20.40;53.30
35325;DHT22;35135;47.510;19.036;2022-10-22T06:26:05;20.40;53.00
35325;DHT22;35135;47.510;19.036;2022-10-22T06:28:32;20.40;53.10
35325;DHT22;35135;47.510;19.036;2022-10-22T06:30:59;20.40;53.10
35325;DHT22;35135;47.510;19.036;2022-10-22T06:33:26;20.50;53.20
35325;DHT22;35135;47.510;19.036;2022-10-22T06:35:51;20.50;53.10
35325;DHT22;35135;47.510;19.036;2022-10-22T06:38:17;20.50;53.10
35325;DHT22;35135;47.510;19.036;2022-10-22T06:40:43;20.50;53.00
35325;DHT22;35135;47.510;19.036;2022-10-22T06:43:13;20.50;52.90
35325;DHT22;35135;47.510;19.036;2022-10-22T06:45:39;20.50;52.80
35325;DHT22;35135;47.510;19.036;2022-10-22T06:48:05;20.50;52.70
35325;DHT22;35135;47.510;19.036;2022-10-22T06:50:33;20.50;52.70
35325;DHT22;35135;47.510;19.036;2022-10-22T06:52:59;20.50;52.60
35325;DHT22;35135;47.510;19.036;2022-10-22T06:55:24;20.50;52.70
35325;DHT22;35135;47.510;19.036;2022-10-22T06:57:50;20.60;52.80
35325;DHT22;35135;47.510;19.036;2022-10-22T07:00:16;20.60;52.70
35325;DHT22;35135;47.510;19.036;2022-10-22T07:02:41;20.60;52.50
35325;DHT22;35135;47.510;19.036;2022-10-22T07:05:07;20.60;52.50
35325;DHT22;35135;47.510;19.036;2022-10-22T07:07:33;20.60;52.30
35325;DHT22;35135;47.510;19.036;2022-10-22T07:09:59;20.70;52.30
35325;DHT22;35135;47.510;19.036;2022-10-22T07:12:24;20.70;52.30
35325;DHT22;35135;47.510;19.036;2022-10-22T07:14:50;20.70;52.30
35325;DHT22;35135;47.510;19.036;2022-10-22T07:17:16;20.70;52.30
35325;DHT22;35135;47.510;19.036;2022-10-22T07:19:41;20.70;52.30
35325;DHT22;35135;47.510;19.036;2022-10-22T07:22:07;20.60;52.30
35325;DHT22;35135;47.510;19.036;2022-10-22T07:24:32;20.60;52.30
35325;DHT22;35135;47.510;19.036;2022-10-22T07:26:58;20.60;52.50
35325;DHT22;35135;47.510;19.036;2022-10-22T07:29:24;20.60;52.40
35325;DHT22;35135;47.510;19.036;2022-10-22T07:31:49;20.60;52.40
35325;DHT22;35135;47.510;19.036;2022-10-22T07:34:15;20.60;52.30
35325;DHT22;35135;47.510;19.036;2022-10-22T07:36:41;20.60;52.30
35325;DHT22;35135;47.510;19.036;2022-10-22T07:39:06;20.70;52.30
35325;DHT22;35135;47.510;19.036;2022-10-22T07:41:32;20.70;52.30
35325;DHT22;35135;47.510;19.036;2022-10-22T07:43:58;20.80;52.20
35325;DHT22;35135;47.510;19.036;2022-10-22T07:46:24;20.80;52.00
35325;DHT22;35135;47.510;19.036;2022-10-22T07:48:51;20.80;51.90
35325;DHT22;35135;47.510;19.036;2022-10-22T07:51:17;20.80;51.90
35325;DHT22;35135;47.510;19.036;2022-10-22T07:53:42;20.80;51.90
35325;DHT22;35135;47.510;19.036;2022-10-22T07:56:08;20.90;52.00
35325;DHT22;35135;47.510;19.036;2022-10-22T07:58:34;20.90;51.90
35325;DHT22;35135;47.510;19.036;2022-10-22T08:01:01;20.90;52.00
35325;DHT22;35135;47.510;19.036;2022-10-22T08:03:28;20.90;51.90
35325;DHT22;35135;47.510;19.036;2022-10-22T08:05:54;20.90;52.00
35325;DHT22;35135;47.510;19.036;2022-10-22T08:08:20;20.90;51.90
35325;DHT22;35135;47.510;19.036;2022-10-22T08:10:47;21.00;52.00
35325;DHT22;35135;47.510;19.036;2022-10-22T08:13:13;20.90;52.00
35325;DHT22;35135;47.510;19.036;2022-10-22T08:15:40;21.00;51.90
35325;DHT22;35135;47.510;19.036;2022-10-22T08:18:06;21.00;51.90
35325;DHT22;35135;47.510;19.036;2022-10-22T08:20:32;21.00;52.00
35325;DHT22;35135;47.510;19.036;2022-10-22T08:22:57;21.00;51.70
35325;DHT22;35135;47.510;19.036;2022-10-22T08:25:24;20.90;51.70
35325;DHT22;35135;47.510;19.036;2022-10-22T08:27:49;21.00;51.90
35325;DHT22;35135;47.510;19.036;2022-10-22T08:30:16;21.00;52.00
35325;DHT22;35135;47.510;19.036;2022-10-22T08:32:41;21.00;51.70
35325;DHT22;35135;47.510;19.036;2022-10-22T08:35:07;21.00;51.70
35325;DHT22;35135;47.510;19.036;2022-10-22T08:37:33;21.00;51.90
35325;DHT22;35135;47.510;19.036;2022-10-22T08:39:58;21.00;51.80
35325;DHT22;35135;47.510;19.036;2022-10-22T08:43:01;21.00;51.80
35325;DHT22;35135;47.510;19.036;2022-10-22T08:46:24;20.90;51.60
35325;DHT22;35135;47.510;19.036;2022-10-22T08:48:46;20.90;51.40
35325;DHT22;35135;47.510;19.036;2022-10-22T08:51:19;20.90;51.50
35325;DHT22;35135;47.510;19.036;2022-10-22T08:54:16;20.90;51.60
35325;DHT22;35135;47.510;19.036;2022-10-22T08:56:45;20.90;51.60
35325;DHT22;35135;47.510;19.036;2022-10-22T08:59:25;20.90;51.50
35325;DHT22;35135;47.510;19.036;2022-10-22T09:01:53;20.90;51.60
35325;DHT22;35135;47.510;19.036;2022-10-22T09:04:41;20.80;51.50
35325;DHT22;35135;47.510;19.036;2022-10-22T09:07:09;20.80;51.60
35325;DHT22;35135;47.510;19.036;2022-10-22T09:09:42;20.90;51.60
35325;DHT22;35135;47.510;19.036;2022-10-22T09:12:14;20.80;51.70
35325;DHT22;35135;47.510;19.036;2022-10-22T09:14:40;20.80;51.60
35325;DHT22;35135;47.510;19.036;2022-10-22T09:17:20;20.80;51.70
35325;DHT22;35135;47.510;19.036;2022-10-22T09:25:22;20.80;51.70
35325;DHT22;35135;47.510;19.036;2022-10-22T09:27:50;20.80;51.70
35325;DHT22;35135;47.510;19.036;2022-10-22T09:30:19;20.80;51.80
35325;DHT22;35135;47.510;19.036;2022-10-22T09:33:23;20.80;51.80
35325;DHT22;35135;47.510;19.036;2022-10-22T09:35:46;20.80;51.90
35325;DHT22;35135;47.510;19.036;2022-10-22T09:38:15;20.80;52.00
35325;DHT22;35135;47.510;19.036;2022-10-22T09:40:51;20.80;51.80
35325;DHT22;35135;47.510;19.036;2022-10-22T09:43:18;20.80;51.80
35325;DHT22;35135;47.510;19.036;2022-10-22T09:45:45;20.80;51.90
35325;DHT22;35135;47.510;19.036;2022-10-22T09:48:16;20.80;51.90
35325;DHT22;35135;47.510;19.036;2022-10-22T09:50:47;20.80;51.90
35325;DHT22;35135;47.510;19.036;2022-10-22T09:53:29;20.80;51.90
35325;DHT22;35135;47.510;19.036;2022-10-22T09:55:57;20.80;51.90
35325;DHT22;35135;47.510;19.036;2022-10-22T09:58:23;20.80;52.00
35325;DHT22;35135;47.510;19.036;2022-10-22T10:00:57;20.80;52.00
35325;DHT22;35135;47.510;19.036;2022-10-22T10:03:28;20.80;51.90
35325;DHT22;35135;47.510;19.036;2022-10-22T10:05:58;20.80;52.00
35325;DHT22;35135;47.510;19.036;2022-10-22T10:08:24;20.80;51.90
35325;DHT22;35135;47.510;19.036;2022-10-22T10:11:11;20.80;51.90
35325;DHT22;35135;47.510;19.036;2022-10-22T10:13:45;20.80;51.90
35325;DHT22;35135;47.510;19.036;2022-10-22T10:16:37;20.80;51.90
35325;DHT22;35135;47.510;19.036;2022-10-22T10:30:00;20.80;51.70
35325;DHT22;35135;47.510;19.036;2022-10-22T10:32:47;20.80;51.80
35325;DHT22;35135;47.510;19.036;2022-10-22T10:35:27;20.80;52.30
35325;DHT22;35135;47.510;19.036;2022-10-22T10:38:24;20.80;51.80
35325;DHT22;35135;47.510;19.036;2022-10-22T10:44:26;20.80;51.80
35325;DHT22;35135;47.510;19.036;2022-10-22T10:46:39;20.80;51.70
35325;DHT22;35135;47.510;19.036;2022-10-22T10:49:32;20.80;51.70
35325;DHT22;35135;47.510;19.036;2022-10-22T11:10:37;20.80;51.60
35325;DHT22;35135;47.510;19.036;2022-10-22T11:13:15;20.80;51.70
35325;DHT22;35135;47.510;19.036;2022-10-22T11:15:49;20.80;51.70
35325;DHT22;35135;47.510;19.036;2022-10-22T11:18:22;20.80;51.60
35325;DHT22;35135;47.510;19.036;2022-10-22T11:20:56;20.80;51.70
35325;DHT22;35135;47.510;19.036;2022-10-22T11:26:05;20.80;51.60
35325;DHT22;35135;47.510;19.036;2022-10-22T11:28:47;20.80;51.70
35325;DHT22;35135;47.510;19.036;2022-10-22T11:31:15;20.80;51.70
35325;DHT22;35135;47.510;19.036;2022-10-22T11:36:13;20.80;51.70
35325;DHT22;35135;47.510;19.036;2022-10-22T11:38:39;20.80;51.80
35325;DHT22;35135;47.510;19.036;2022-10-22T11:41:15;20.80;51.70
35325;DHT22;35135;47.510;19.036;2022-10-22T11:44:21;20.80;51.80
35325;DHT22;35135;47.510;19.036;2022-10-22T11:46:56;20.80;51.90
35325;DHT22;35135;47.510;19.036;2022-10-22T11:49:43;20.80;51.80
35325;DHT22;35135;47.510;19.036;2022-10-22T11:52:46;20.80;51.90
35325;DHT22;35135;47.510;19.036;2022-10-22T12:03:49;20.80;51.90
35325;DHT22;35135;47.510;19.036;2022-10-22T12:06:17;20.80;51.80
35325;DHT22;35135;47.510;19.036;2022-10-22T12:11:39;20.80;51.90
35325;DHT22;35135;47.510;19.036;2022-10-22T12:16:41;20.80;51.70
35325;DHT22;35135;47.510;19.036;2022-10-22T12:21:53;20.90;51.80
35325;DHT22;35135;47.510;19.036;2022-10-22T12:24:22;20.80;51.70
35325;DHT22;35135;47.510;19.036;2022-10-22T12:26:48;20.80;51.70
35325;DHT22;35135;47.510;19.036;2022-10-22T12:29:18;20.80;51.80
35325;DHT22;35135;47.510;19.036;2022-10-22T12:31:45;20.80;51.80
35325;DHT22;35135;47.510;19.036;2022-10-22T12:34:16;20.80;52.50
35325;DHT22;35135;47.510;19.036;2022-10-22T12:36:43;20.80;51.90
35325;DHT22;35135;47.510;19.036;2022-10-22T12:39:15;20.80;52.00
35325;DHT22;35135;47.510;19.036;2022-10-22T12:41:41;20.80;52.10
35325;DHT22;35135;47.510;19.036;2022-10-22T12:44:11;20.80;52.00
35325;DHT22;35135;47.510;19.036;2022-10-22T12:46:38;20.80;52.00
35325;DHT22;35135;47.510;19.036;2022-10-22T12:49:10;20.80;52.00
35325;DHT22;35135;47.510;19.036;2022-10-22T12:51:37;20.80;52.00
35325;DHT22;35135;47.510;19.036;2022-10-22T12:54:11;20.80;51.90
35325;DHT22;35135;47.510;19.036;2022-10-22T12:56:37;20.80;52.00
35325;DHT22;35135;47.510;19.036;2022-10-22T12:59:15;20.70;51.90
35325;DHT22;35135;47.510;19.036;2022-10-22T13:01:42;20.80;52.00
35325;DHT22;35135;47.510;19.036;2022-10-22T13:09:40;20.70;52.10
35325;DHT22;35135;47.510;19.036;2022-10-22T13:12:08;20.80;52.10
35325;DHT22;35135;47.510;19.036;2022-10-22T13:14:42;20.70;52.20
35325;DHT22;35135;47.510;19.036;2022-10-22T13:17:19;20.70;52.10
35325;DHT22;35135;47.510;19.036;2022-10-22T13:22:34;20.70;52.20
35325;DHT22;35135;47.510;19.036;2022-10-22T13:27:48;20.70;52.20
35325;DHT22;35135;47.510;19.036;2022-10-22T13:30:26;20.70;52.20
35325;DHT22;35135;47.510;19.036;2022-10-22T13:32:56;20.70;52.30
35325;DHT22;35135;47.510;19.036;2022-10-22T13:35:25;20.70;52.30
35325;DHT22;35135;47.510;19.036;2022-10-22T13:37:51;20.70;52.10
35325;DHT22;35135;47.510;19.036;2022-10-22T13:40:18;20.70;52.10
35325;DHT22;35135;47.510;19.036;2022-10-22T13:42:43;20.70;52.10
35325;DHT22;35135;47.510;19.036;2022-10-22T13:45:09;20.70;52.10
35325;DHT22;35135;47.510;19.036;2022-10-22T13:47:35;20.70;52.10
35325;DHT22;35135;47.510;19.036;2022-10-22T13:50:03;20.70;52.10
35325;DHT22;35135;47.510;19.036;2022-10-22T13:52:39;20.70;52.20
35325;DHT22;35135;47.510;19.036;2022-10-22T13:55:20;20.70;52.20
35325;DHT22;35135;47.510;19.036;2022-10-22T13:57:47;20.70;52.20
35325;DHT22;35135;47.510;19.036;2022-10-22T14:00:17;20.70;52.30
35325;DHT22;35135;47.510;19.036;2022-10-22T14:02:44;20.70;52.30
35325;DHT22;35135;47.510;19.036;2022-10-22T14:05:11;20.70;52.20
35325;DHT22;35135;47.510;19.036;2022-10-22T14:07:37;20.70;52.20
35325;DHT22;35135;47.510;19.036;2022-10-22T14:10:30;20.70;52.20
35325;DHT22;35135;47.510;19.036;2022-10-22T14:12:56;20.70;52.30
35325;DHT22;35135;47.510;19.036;2022-10-22T14:15:23;20.70;52.40
35325;DHT22;35135;47.510;19.036;2022-10-22T14:17:55;20.70;52.30
35325;DHT22;35135;47.510;19.036;2022-10-22T14:20:26;20.70;52.30
35325;DHT22;35135;47.510;19.036;2022-10-22T14:22:53;20.70;52.40
35325;DHT22;35135;47.510;19.036;2022-10-22T14:25:21;20.70;52.50
35325;DHT22;35135;47.510;19.036;2022-10-22T14:27:47;20.70;52.30
35325;DHT22;35135;47.510;19.036;2022-10-22T14:30:15;20.60;52.20
35325;DHT22;35135;47.510;19.036;2022-10-22T14:32:41;20.70;52.30
35325;DHT22;35135;47.510;19.036;2022-10-22T14:35:12;20.70;52.20
35325;DHT22;35135;47.510;19.036;2022-10-22T14:37:38;20.70;52.30
35325;DHT22;35135;47.510;19.036;2022-10-22T14:40:05;20.60;52.30
35325;DHT22;35135;47.510;19.036;2022-10-22T14:42:33;20.60;52.30
35325;DHT22;35135;47.510;19.036;2022-10-22T14:45:03;20.70;52.40
35325;DHT22;35135;47.510;19.036;2022-10-22T14:47:29;20.70;52.40
35325;DHT22;35135;47.510;19.036;2022-10-22T14:49:54;20.60;52.20
35325;DHT22;35135;47.510;19.036;2022-10-22T14:52:20;20.70;52.30
35325;DHT22;35135;47.510;19.036;2022-10-22T14:54:45;20.60;52.30
35325;DHT22;35135;47.510;19.036;2022-10-22T14:57:13;20.70;52.40
35325;DHT22;35135;47.510;19.036;2022-10-22T14:59:39;20.60;52.30
35325;DHT22;35135;47.510;19.036;2022-10-22T15:02:07;20.60;52.30
35325;DHT22;35135;47.510;19.036;2022-10-22T15:04:33;20.70;52.40
35325;DHT22;35135;47.510;19.036;2022-10-22T15:06:58;20.60;52.40
35325;DHT22;35135;47.510;19.036;2022-10-22T15:09:24;20.60;52.40
35325;DHT22;35135;47.510;19.036;2022-10-22T15:11:50;20.60;52.30
35325;DHT22;35135;47.510;19.036;2022-10-22T15:14:15;20.60;52.40
35325;DHT22;35135;47.510;19.036;2022-10-22T15:16:41;20.60;52.40
35325;DHT22;35135;47.510;19.036;2022-10-22T15:19:07;20.70;52.40
35325;DHT22;35135;47.510;19.036;2022-10-22T15:21:32;20.70;52.40
35325;DHT22;35135;47.510;19.036;2022-10-22T15:23:59;20.60;52.40
35325;DHT22;35135;47.510;19.036;2022-10-22T15:26:25;20.70;52.50
35325;DHT22;35135;47.510;19.036;2022-10-22T15:28:50;20.70;52.50
35325;DHT22;35135;47.510;19.036;2022-10-22T15:31:46;20.60;52.50
35325;DHT22;35135;47.510;19.036;2022-10-22T15:34:16;20.60;52.30
35325;DHT22;35135;47.510;19.036;2022-10-22T15:36:42;20.60;52.40
35325;DHT22;35135;47.510;19.036;2022-10-22T15:39:08;20.70;52.50
35325;DHT22;35135;47.510;19.036;2022-10-22T15:41:35;20.60;52.40
35325;DHT22;35135;47.510;19.036;2022-10-22T15:44:01;20.60;52.40
35325;DHT22;35135;47.510;19.036;2022-10-22T15:46:27;20.60;52.40
35325;DHT22;35135;47.510;19.036;2022-10-22T15:48:53;20.60;52.30
35325;DHT22;35135;47.510;19.036;2022-10-22T15:51:20;20.60;52.50
35325;DHT22;35135;47.510;19.036;2022-10-22T15:53:53;20.60;52.50
35325;DHT22;35135;47.510;19.036;2022-10-22T15:56:19;20.60;52.50
35325;DHT22;35135;47.510;19.036;2022-10-22T15:58:46;20.60;52.50
35325;DHT22;35135;47.510;19.036;2022-10-22T16:01:13;20.60;52.50
35325;DHT22;35135;47.510;19.036;2022-10-22T16:03:39;20.60;52.50
35325;DHT22;35135;47.510;19.036;2022-10-22T16:06:06;20.60;52.60
35325;DHT22;35135;47.510;19.036;2022-10-22T16:08:33;20.60;52.60
35325;DHT22;35135;47.510;19.036;2022-10-22T16:10:58;20.60;52.60
35325;DHT22;35135;47.510;19.036;2022-10-22T16:13:24;20.60;52.50
35325;DHT22;35135;47.510;19.036;2022-10-22T16:15:51;20.60;52.50
35325;DHT22;35135;47.510;19.036;2022-10-22T16:18:18;20.60;52.60
35325;DHT22;35135;47.510;19.036;2022-10-22T16:20:44;20.60;52.50
35325;DHT22;35135;47.510;19.036;2022-10-22T16:23:09;20.60;52.50
35325;DHT22;35135;47.510;19.036;2022-10-22T16:25:39;20.60;52.50
35325;DHT22;35135;47.510;19.036;2022-10-22T16:28:05;20.60;52.60
35325;DHT22;35135;47.510;19.036;2022-10-22T16:30:33;20.60;52.60
35325;DHT22;35135;47.510;19.036;2022-10-22T16:33:00;20.60;52.60
35325;DHT22;35135;47.510;19.036;2022-10-22T16:35:25;20.60;52.60
35325;DHT22;35135;47.510;19.036;2022-10-22T16:37:51;20.60;52.60
35325;DHT22;35135;47.510;19.036;2022-10-22T16:40:16;20.60;52.70
35325;DHT22;35135;47.510;19.036;2022-10-22T16:42:43;20.60;52.70
35325;DHT22;35135;47.510;19.036;2022-10-22T16:45:09;20.60;52.60
35325;DHT22;35135;47.510;19.036;2022-10-22T16:47:35;20.60;52.50
35325;DHT22;35135;47.510;19.036;2022-10-22T16:50:01;20.60;52.50
35325;DHT22;35135;47.510;19.036;2022-10-22T16:52:26;20.60;52.60
35325;DHT22;35135;47.510;19.036;2022-10-22T16:54:52;20.60;52.70
35325;DHT22;35135;47.510;19.036;2022-10-22T16:57:18;20.60;52.70
35325;DHT22;35135;47.510;19.036;2022-10-22T16:59:43;20.60;52.70